Time;durP1;ratioP1;P1;durP2;ratioP2;P2;SDS_P1;SDS_P2;PMS_P1;PMS_P2;Temp;Humidity;BMP_temperature;BMP_pressure;BME280_temperature;BME280_humidity;BME280_pressure;Samples;Min_cycle;Max_cycle;Signal;HPM_P1;HPM_P2
2023/10/12 04:25:23;;;;;;;7.47;4.00;;;;;;;15.84;93.17;100156.47;5108240;28;20036;-63
2023/10/12 04:27:52;;;;;;;6.65;4.15;;;;;;;15.89;92.88;100150.50;5089409;28;20043;-63
2023/10/12 04:30:20;;;;;;;7.80;3.80;;;;;;;15.89;92.56;100145.13;5089366;28;20032;-64
2023/10/12 04:33:20;;;;;;;;;;;;;;;15.76;92.31;100145.97;5089614;28;20059;-65
2023/10/12 04:35:52;;;;;;;5.97;3.75;;;;;;;15.69;93.35;100154.03;5085775;28;19951;-63
2023/10/12 04:43:37;;;;;;;9.85;4.80;;;;;;;15.39;96.21;100172.41;5088803;28;20040;-61
2023/10/12 04:48:43;;;;;;;7.07;4.45;;;;;;;15.38;96.13;100178.78;5088957;28;20403;-64
2023/10/12 04:51:18;;;;;;;9.77;5.05;;;;;;;15.36;96.48;100178.19;5088968;28;20028;-63
2023/10/12 04:53:57;;;;;;;13.43;7.75;;;;;;;15.33;97.20;100175.94;5088702;28;20220;-65
2023/10/12 04:56:26;;;;;;;11.73;5.43;;;;;;;15.34;96.82;100174.88;5088741;28;20032;-63
2023/10/12 04:59:14;;;;;;;9.55;5.97;;;;;;;15.30;97.58;100175.50;5088755;28;20042;-63
2023/10/12 05:02:01;;;;;;;9.05;5.57;;;;;;;15.26;98.44;100182.28;5088726;28;20089;-63
2023/10/12 05:04:49;;;;;;;9.93;5.20;;;;;;;15.25;98.20;100173.41;5088354;28;20044;-64
2023/10/12 05:09:49;;;;;;;13.27;6.53;;;;;;;15.19;99.69;100158.13;5088650;28;20086;-63
2023/10/12 05:12:28;;;;;;;11.65;6.10;;;;;;;15.19;99.45;100168.88;5088477;28;20089;-66
2023/10/12 05:14:59;;;;;;;8.68;5.47;;;;;;;15.10;99.34;100164.75;5088726;28;20573;-68
2023/10/12 05:17:24;;;;;;;10.35;5.28;;;;;;;15.16;98.98;100180.84;5088407;28;20070;-66
2023/10/12 05:19:53;;;;;;;9.60;5.30;;;;;;;15.19;99.25;100184.97;5088297;28;20505;-66
2023/10/12 05:22:20;;;;;;;9.43;4.93;;;;;;;15.18;98.76;100159.19;5088220;28;20513;-66
2023/10/12 05:24:48;;;;;;;10.82;5.15;;;;;;;15.19;99.02;100174.25;5088023;28;20047;-66
2023/10/12 05:27:24;;;;;;;9.20;4.55;;;;;;;15.19;98.76;100168.88;5088211;28;20499;-65
2023/10/12 05:29:59;;;;;;;9.05;5.03;;;;;;;15.19;98.74;100164.38;5088307;28;20040;-66
2023/10/12 05:32:44;;;;;;;13.07;4.40;;;;;;;15.17;99.36;100170.94;5082989;28;20566;-65
2023/10/12 05:35:41;;;;;;;9.50;5.28;;;;;;;15.16;99.20;100178.16;5074317;28;20105;-47
2023/10/12 05:38:06;;;;;;;11.95;5.20;;;;;;;15.18;99.51;100183.31;5074473;28;20237;-49
2023/10/12 05:40:41;;;;;;;14.00;5.85;;;;;;;15.19;99.04;100176.94;5074517;28;20021;-48
2023/10/12 05:43:16;;;;;;;9.40;5.65;;;;;;;15.22;98.98;100183.75;5074522;28;20127;-53
2023/10/12 05:45:44;;;;;;;10.00;4.93;;;;;;;15.24;98.91;100185.19;5074619;28;20037;-51
2023/10/12 05:48:09;;;;;;;;;;;;;;;15.20;100.00;100183.97;5057336;28;20153;-47
2023/10/12 05:50:35;;;;;;;12.43;5.15;;;;;;;15.18;99.67;100177.97;5074450;28;19948;-50
2023/10/12 05:53:03;;;;;;;10.38;5.03;;;;;;;15.19;100.00;100179.59;5074283;28;20040;-54
2023/10/12 05:55:29;;;;;;;12.15;5.35;;;;;;;15.15;100.00;100175.69;5074749;28;20047;-47
2023/10/12 05:58:05;;;;;;;7.35;5.00;;;;;;;15.11;100.00;100177.94;5074230;28;20044;-46
2023/10/12 06:00:37;;;;;;;8.75;5.07;;;;;;;15.10;100.00;100178.16;5074005;28;20037;-49
2023/10/12 06:03:05;;;;;;;10.63;5.32;;;;;;;15.04;100.00;100182.47;5071091;28;20557;-46
2023/10/12 06:05:30;;;;;;;;;;;;;;;15.07;100.00;100183.94;5073541;28;20037;-46
2023/10/12 06:08:00;;;;;;;14.00;6.32;;;;;;;15.11;100.00;100185.19;5073734;28;19938;-48
2023/10/12 06:10:29;;;;;;;10.80;5.18;;;;;;;15.12;100.00;100194.88;5073822;28;20135;-50
2023/10/12 06:12:58;;;;;;;9.95;5.65;;;;;;;15.11;100.00;100191.38;5073579;28;20105;-48
2023/10/12 06:15:25;;;;;;;15.18;7.10;;;;;;;15.14;100.00;100195.50;5073063;28;20032;-50
2023/10/12 06:17:55;;;;;;;11.27;6.23;;;;;;;15.13;100.00;100204.59;5073435;28;20040;-47
2023/10/12 06:20:40;;;;;;;8.88;5.75;;;;;;;15.12;100.00;100205.59;5073400;28;20753;-48
2023/10/12 06:23:08;;;;;;;11.65;5.22;;;;;;;15.06;100.00;100204.59;5073271;28;20037;-55
2023/10/12 06:25:38;;;;;;;6.93;5.25;;;;;;;15.02;100.00;100191.78;5072958;28;20044;-57
2023/10/12 06:28:13;;;;;;;10.30;4.78;;;;;;;14.94;100.00;100198.16;5055467;28;20037;-54
2023/10/12 06:30:41;;;;;;;12.27;5.38;;;;;;;14.97;100.00;100194.22;5073377;28;20094;-60
2023/10/12 06:33:12;;;;;;;10.80;5.50;;;;;;;14.97;100.00;100195.06;5067489;28;20052;-57
2023/10/12 06:35:51;;;;;;;8.35;5.25;;;;;;;14.99;100.00;100206.41;5072420;28;20040;-59
2023/10/12 06:38:22;;;;;;;13.05;5.30;;;;;;;15.06;100.00;100217.16;5073115;28;20033;-57
2023/10/12 06:40:48;;;;;;;16.48;12.45;;;;;;;15.10;100.00;100218.41;5073101;28;20072;-56
2023/10/12 06:45:47;;;;;;;11.65;7.45;;;;;;;15.25;100.00;100232.44;5069859;28;20040;-57
2023/10/12 06:51:13;;;;;;;13.85;6.70;;;;;;;15.43;100.00;100240.75;5015835;28;21297;-48
2023/10/12 06:53:41;;;;;;;11.05;5.72;;;;;;;15.50;100.00;100235.38;5065996;28;20029;-49
2023/10/12 06:58:44;;;;;;;11.50;7.43;;;;;;;15.67;100.00;100231.28;5066083;28;20052;-54
2023/10/12 07:01:27;;;;;;;14.18;8.55;;;;;;;15.73;100.00;100237.69;5066403;28;20391;-49
2023/10/12 07:03:53;;;;;;;18.42;7.57;;;;;;;15.79;100.00;100239.56;5065374;28;20503;-52
2023/10/12 07:06:19;;;;;;;8.80;6.63;;;;;;;15.80;100.00;100237.69;5049004;28;20029;-54
2023/10/12 07:08:46;;;;;;;15.38;6.47;;;;;;;15.86;100.00;100245.75;5065157;28;20036;-56
2023/10/12 07:11:14;;;;;;;12.30;5.95;;;;;;;15.92;100.00;100247.63;5066467;28;20020;-54
2023/10/12 07:13:41;;;;;;;17.48;6.20;;;;;;;15.99;100.00;100251.13;5064898;28;20028;-56
2023/10/12 07:16:10;;;;;;;15.73;6.95;;;;;;;16.05;100.00;100248.63;5065580;28;20226;-55
2023/10/12 07:18:42;;;;;;;13.23;5.45;;;;;;;16.10;100.00;100240.75;5065852;28;20057;-54
2023/10/12 07:21:20;;;;;;;11.55;5.95;;;;;;;16.20;100.00;100243.84;5065524;28;20040;-54
2023/10/12 07:23:52;;;;;;;17.48;6.45;;;;;;;16.29;100.00;100251.47;5064649;28;20041;-52
2023/10/12 07:26:23;;;;;;;15.70;5.68;;;;;;;16.38;99.07;100257.44;5063877;28;20040;-56
2023/10/12 07:28:50;;;;;;;13.82;5.90;;;;;;;16.47;99.09;100258.03;5072091;28;20760;-52
2023/10/12 07:40:17;;;;;;;12.93;6.70;;;;;;;16.81;96.65;100264.97;5072080;28;20431;-56
2023/10/12 07:42:01;;;;;;;13.25;6.47;;;;;;;16.93;94.65;100265.13;5061374;28;20427;-53
2023/10/12 07:44:28;;;;;;;11.73;6.10;;;;;;;17.02;95.86;100267.38;5068137;28;20036;-55
2023/10/12 07:46:56;;;;;;;11.63;6.40;;;;;;;17.13;93.08;100256.97;5068502;28;20514;-57
2023/10/12 07:52:21;;;;;;;14.45;6.43;;;;;;;17.28;95.12;100255.66;5069452;28;20388;-58
2023/10/12 07:57:16;;;;;;;16.88;5.82;;;;;;;17.51;98.88;100260.44;5065757;28;20020;-56
2023/10/12 08:00:29;;;;;;;17.10;5.47;;;;;;;17.63;92.80;100265.97;5069492;28;20042;-57
2023/10/12 08:13:04;;;;;;;19.75;6.35;;;;;;;18.32;85.06;100251.50;5071572;28;20620;-59
2023/10/12 08:15:49;;;;;;;13.35;5.55;;;;;;;18.44;85.08;100256.94;5071191;28;20120;-55
2023/10/12 08:18:50;;;;;;;16.77;5.50;;;;;;;18.58;83.65;100254.91;5071505;28;20149;-57
2023/10/12 08:21:01;;;;;;;13.77;7.28;;;;;;;18.70;81.97;100251.25;5071195;28;20043;-59
2023/10/12 08:23:27;;;;;;;20.03;6.50;;;;;;;18.82;81.79;100258.59;5071001;28;20044;-59
2023/10/12 08:25:57;;;;;;;16.00;6.88;;;;;;;18.93;80.34;100252.44;5071342;28;20035;-59
2023/10/12 08:28:25;;;;;;;13.60;6.40;;;;;;;19.04;79.02;100248.13;5071639;28;20045;-58
2023/10/12 08:31:00;;;;;;;13.48;6.05;;;;;;;19.20;77.65;100251.03;5071542;28;20028;-59
2023/10/12 08:38:55;;;;;;;13.45;6.80;;;;;;;19.39;79.68;100250.97;5071528;28;20037;-57
2023/10/12 08:44:04;;;;;;;15.60;6.15;;;;;;;19.51;81.57;100254.53;5070526;28;20045;-56
2023/10/12 08:52:18;;;;;;;15.50;6.03;;;;;;;19.81;78.13;100249.06;5071329;28;20033;-57
2023/10/12 08:54:51;;;;;;;13.70;6.47;;;;;;;19.91;76.42;100256.63;5070779;28;20035;-58
2023/10/12 08:57:32;;;;;;;12.65;5.63;;;;;;;20.11;75.47;100257.09;5071245;28;20372;-56
2023/10/12 09:02:51;;;;;;;11.57;5.78;;;;;;;20.37;73.93;100257.66;5065619;28;20044;-58
2023/10/12 09:05:24;;;;;;;15.20;6.20;;;;;;;20.46;72.12;100253.53;5070613;28;20029;-58
2023/10/12 09:08:06;;;;;;;18.70;6.93;;;;;;;20.58;72.93;100257.06;5072505;28;20044;-54
2023/10/12 09:10:56;;;;;;;16.13;5.90;;;;;;;20.73;71.88;100256.53;5075012;28;20032;-58
2023/10/12 09:13:27;;;;;;;12.02;6.15;;;;;;;20.96;70.07;100255.66;5074125;28;20058;-57
2023/10/12 09:15:56;;;;;;;16.65;6.32;;;;;;;21.07;69.71;100255.63;5074810;28;20033;-59
2023/10/12 09:18:29;;;;;;;12.05;5.60;;;;;;;21.25;68.04;100272.72;5074935;28;20399;-59
2023/10/12 09:28:52;;;;;;;13.60;5.80;;;;;;;22.02;65.49;100274.88;5074651;28;20043;-57
2023/10/12 09:36:37;;;;;;;12.45;6.03;;;;;;;22.37;59.75;100282.75;5074440;28;20063;-57
2023/10/12 09:39:02;;;;;;;16.17;6.13;;;;;;;22.60;59.93;100276.28;5074187;28;20048;-60
2023/10/12 09:41:29;;;;;;;14.00;6.07;;;;;;;22.92;59.07;100281.88;5074127;28;20024;-57
2023/10/12 09:43:56;;;;;;;13.48;5.65;;;;;;;23.25;55.60;100283.59;5055580;28;20071;-58
2023/10/12 09:46:27;;;;;;;14.90;5.95;;;;;;;23.66;55.72;100273.94;5074159;28;20036;-57
2023/10/12 09:49:02;;;;;;;13.68;5.93;;;;;;;24.08;51.86;100278.63;5074113;28;20037;-57
2023/10/12 09:51:35;;;;;;;11.32;5.88;;;;;;;24.48;51.40;100277.28;5074281;28;20056;-56
2023/10/12 09:54:09;;;;;;;22.65;6.38;;;;;;;24.75;50.29;100274.41;5073470;28;20449;-56
2023/10/12 09:56:45;;;;;;;13.48;6.40;;;;;;;24.80;49.71;100277.16;5074068;28;20040;-59
2023/10/12 09:59:18;;;;;;;15.57;5.95;;;;;;;24.92;49.57;100285.94;5073902;28;20044;-57
2023/10/12 10:01:50;;;;;;;13.98;6.07;;;;;;;25.14;49.31;100291.19;5074030;28;20107;-58
2023/10/12 10:07:15;;;;;;;12.98;5.93;;;;;;;25.10;48.26;100290.06;5073814;28;20047;-58
2023/10/12 10:09:56;;;;;;;19.05;6.43;;;;;;;24.87;48.03;100291.34;5074054;28;20044;-56
2023/10/12 10:12:23;;;;;;;14.18;6.22;;;;;;;24.87;47.79;100292.16;5073745;28;20090;-56
2023/10/12 10:14:59;;;;;;;;;;;;;;;24.88;48.10;100304.69;5073544;28;20132;-59
2023/10/12 10:17:35;;;;;;;13.43;6.00;;;;;;;24.82;48.25;100297.59;5073772;28;20014;-57
2023/10/12 10:21:09;;;;;;;15.23;6.43;;;;;;;24.77;49.54;100307.63;5073307;28;20052;-58
2023/10/12 10:23:03;;;;;;;13.57;6.22;;;;;;;24.67;49.39;100318.50;5064188;28;20348;-55
2023/10/12 10:25:34;;;;;;;15.10;6.20;;;;;;;24.60;49.01;100325.00;5073000;28;20056;-58
2023/10/12 10:28:08;;;;;;;17.15;6.88;;;;;;;24.54;50.34;100326.06;5073485;28;20487;-57
2023/10/12 10:30:42;;;;;;;14.43;6.68;;;;;;;24.54;49.90;100333.41;5073422;28;20124;-58
2023/10/12 10:33:12;;;;;;;18.83;7.30;;;;;;;24.53;48.97;100327.13;5067311;28;20381;-56
2023/10/12 10:36:25;;;;;;;13.75;6.30;;;;;;;24.53;49.79;100332.59;5072776;28;20052;-57
2023/10/12 10:38:53;;;;;;;11.82;6.10;;;;;;;24.52;49.79;100330.13;5011243;28;20116;-56
2023/10/12 10:44:03;;;;;;;14.15;5.88;;;;;;;24.53;48.78;100324.41;5051404;28;20123;-53
2023/10/12 10:46:29;;;;;;;18.70;6.68;;;;;;;24.40;49.28;100332.22;5073065;28;20456;-56
2023/10/12 10:48:54;;;;;;;12.52;5.80;;;;;;;24.44;49.26;100338.78;5072814;28;20094;-58
2023/10/12 10:51:27;;;;;;;17.63;6.65;;;;;;;24.47;49.31;100341.78;5072987;28;20031;-57
2023/10/12 10:53:54;;;;;;;16.38;6.30;;;;;;;24.37;49.37;100330.84;5072238;28;20059;-58
2023/10/12 10:56:38;;;;;;;13.63;6.20;;;;;;;24.32;50.01;100341.66;5073008;28;20047;-55
2023/10/12 10:59:13;;;;;;;12.75;6.28;;;;;;;24.14;50.69;100342.91;5072842;28;20091;-57
2023/10/12 11:01:46;;;;;;;15.07;6.78;;;;;;;24.10;50.70;100347.22;5072895;28;20064;-58
2023/10/12 11:04:18;;;;;;;14.32;6.00;;;;;;;24.07;51.19;100348.56;5065984;28;20094;-59
2023/10/12 11:06:49;;;;;;;13.98;5.90;;;;;;;23.94;52.31;100356.34;5072655;28;20035;-59
2023/10/12 11:09:16;;;;;;;14.32;5.35;;;;;;;24.00;51.31;100364.28;5072728;28;20044;-56
2023/10/12 11:11:53;;;;;;;14.57;6.05;;;;;;;23.91;51.91;100362.28;5072917;28;20034;-58
2023/10/12 11:14:22;;;;;;;14.52;6.32;;;;;;;23.83;52.59;100366.28;5071923;28;20033;-57
2023/10/12 11:16:48;;;;;;;10.80;5.80;;;;;;;23.81;52.13;100368.47;5072521;28;20399;-58
2023/10/12 11:19:19;;;;;;;15.60;6.37;;;;;;;23.75;52.47;100355.88;5072363;28;20085;-59
2023/10/12 11:21:53;;;;;;;16.20;6.60;;;;;;;23.50;53.84;100346.38;5072307;28;20275;-57
2023/10/12 11:24:22;;;;;;;16.27;6.38;;;;;;;23.59;52.98;100348.63;5071770;28;20034;-55
2023/10/12 11:26:52;;;;;;;13.18;6.72;;;;;;;23.53;51.94;100351.28;5072348;28;20051;-54
2023/10/12 11:29:18;;;;;;;15.43;6.97;;;;;;;23.39;53.55;100346.50;5064205;28;20034;-59
2023/10/12 11:31:46;;;;;;;13.85;6.80;;;;;;;23.17;53.30;100335.69;5071588;28;20021;-57
2023/10/12 11:34:23;;;;;;;17.65;7.97;;;;;;;23.09;53.30;100314.41;5065328;28;20110;-59
2023/10/12 11:36:57;;;;;;;18.70;7.70;;;;;;;23.12;53.65;100332.88;5072140;28;20044;-58
2023/10/12 11:39:28;;;;;;;16.50;6.53;;;;;;;23.02;54.70;100318.13;5072077;28;20040;-57
2023/10/12 11:42:12;;;;;;;13.85;7.53;;;;;;;23.12;53.65;100338.31;5072212;28;20468;-56
2023/10/12 11:44:44;;;;;;;15.88;7.03;;;;;;;23.15;53.82;100337.84;5062438;28;20454;-56
2023/10/12 11:47:13;;;;;;;19.70;7.05;;;;;;;23.18;53.14;100321.81;5071235;28;20046;-57
2023/10/12 11:49:49;;;;;;;18.15;6.32;;;;;;;23.19;53.40;100309.88;5071338;28;20040;-57
2023/10/12 11:52:22;;;;;;;14.87;6.67;;;;;;;23.23;52.86;100313.75;5072133;28;20045;-58
2023/10/12 11:54:48;;;;;;;17.42;6.90;;;;;;;23.25;52.51;100308.03;5071908;28;20115;-54
2023/10/12 11:57:13;;;;;;;16.60;6.43;;;;;;;23.25;53.91;100297.16;5071292;28;20399;-56
2023/10/12 11:59:39;;;;;;;14.48;6.93;;;;;;;23.18;52.78;100308.25;5061498;28;20045;-58
2023/10/12 12:02:09;;;;;;;22.17;7.15;;;;;;;23.25;54.10;100308.84;5061691;28;20044;-58
2023/10/12 12:04:40;;;;;;;12.45;5.70;;;;;;;23.23;52.48;100307.47;5061240;28;20061;-58
2023/10/12 12:07:10;;;;;;;14.43;6.60;;;;;;;23.20;52.30;100294.41;5042943;28;20487;-57
2023/10/12 12:09:39;;;;;;;16.20;6.95;;;;;;;23.17;52.72;100276.72;5044613;28;20127;-58
2023/10/12 12:12:07;;;;;;;13.82;6.40;;;;;;;23.15;52.85;100286.22;5059634;28;20048;-57
2023/10/12 12:14:33;;;;;;;14.77;6.30;;;;;;;23.06;53.46;100285.81;5058372;28;20624;-58
2023/10/12 12:17:01;;;;;;;12.30;6.38;;;;;;;23.07;53.09;100279.31;5058991;28;20111;-58
2023/10/12 12:19:26;;;;;;;12.43;7.15;;;;;;;23.01;53.95;100275.72;5062266;28;20033;-57
2023/10/12 12:21:53;;;;;;;12.95;6.53;;;;;;;22.88;53.34;100278.81;5059071;28;20036;-58
2023/10/12 12:24:22;;;;;;;9.65;6.90;;;;;;;22.90;53.40;100271.25;5061700;28;20043;-57
2023/10/12 12:26:50;;;;;;;17.90;6.65;;;;;;;22.88;54.00;100281.53;5060173;28;20484;-57
2023/10/12 12:29:16;;;;;;;12.73;6.95;;;;;;;22.89;53.88;100268.81;5061632;28;20075;-57
2023/10/12 12:31:42;;;;;;;17.75;6.60;;;;;;;22.92;53.39;100252.81;5062020;28;20368;-57
2023/10/12 12:34:07;;;;;;;14.73;6.60;;;;;;;22.83;52.21;100234.50;5059950;28;20044;-58
2023/10/12 12:36:34;;;;;;;15.52;7.05;;;;;;;22.77;52.64;100227.34;5062280;28;20071;-58
2023/10/12 12:39:12;;;;;;;14.68;7.35;;;;;;;22.78;52.97;100234.41;5063281;28;20514;-59
2023/10/12 12:41:37;;;;;;;15.13;6.55;;;;;;;22.72;53.04;100219.97;5061698;28;20033;-57
2023/10/12 12:44:03;;;;;;;11.02;5.60;;;;;;;22.70;53.47;100209.38;5063291;28;20151;-59
2023/10/12 12:46:29;;;;;;;14.23;6.50;;;;;;;22.71;53.89;100212.91;5066037;28;20113;-57
2023/10/12 12:48:55;;;;;;;14.32;6.70;;;;;;;22.72;52.83;100209.09;5066865;28;20033;-56
2023/10/12 12:51:21;;;;;;;14.77;5.50;;;;;;;22.76;52.77;100199.38;5045928;28;20043;-58
2023/10/12 12:53:50;;;;;;;14.07;6.00;;;;;;;22.72;52.68;100198.25;5046503;28;20029;-58
2023/10/12 12:56:21;;;;;;;11.93;6.28;;;;;;;22.69;52.27;100190.59;5064236;28;20086;-58
2023/10/12 12:58:48;;;;;;;13.00;6.40;;;;;;;22.71;52.33;100196.59;5065922;28;20145;-56
2023/10/12 13:01:26;;;;;;;17.90;6.07;;;;;;;22.76;52.41;100196.66;5064587;28;20047;-60
2023/10/12 13:03:52;;;;;;;11.75;7.10;;;;;;;22.81;52.89;100194.00;5063962;28;20059;-58
2023/10/12 13:06:22;;;;;;;14.68;6.43;;;;;;;22.84;52.35;100190.78;5064668;28;20024;-59
2023/10/12 13:08:47;;;;;;;12.07;5.72;;;;;;;22.99;51.95;100196.38;5065642;28;20044;-58
2023/10/12 13:11:20;;;;;;;14.43;6.78;;;;;;;23.00;51.75;100189.88;5061901;28;20040;-58
2023/10/12 13:13:47;;;;;;;14.93;6.40;;;;;;;23.01;51.62;100190.69;5063592;28;20067;-57
2023/10/12 13:16:13;;;;;;;;;;;;;;;23.13;52.57;100182.41;5064900;28;20454;-56
2023/10/12 13:18:40;;;;;;;14.05;6.30;;;;;;;23.10;52.17;100180.22;5063303;28;19942;-58
2023/10/12 13:21:14;;;;;;;14.65;6.00;;;;;;;23.19;52.46;100186.81;5070459;28;20078;-58
2023/10/12 13:23:40;;;;;;;12.52;6.53;;;;;;;23.25;51.79;100180.34;5074545;28;20077;-57
2023/10/12 13:26:07;;;;;;;15.68;6.65;;;;;;;23.29;52.37;100178.75;5074745;28;20486;-57
2023/10/12 13:28:33;;;;;;;13.63;6.25;;;;;;;23.31;51.38;100173.88;5074804;28;20041;-56
2023/10/12 13:30:58;;;;;;;18.98;6.75;;;;;;;23.37;51.40;100172.84;5074689;28;20457;-56
2023/10/12 13:33:27;;;;;;;14.98;6.18;;;;;;;23.43;51.64;100165.53;5074123;28;20051;-59
2023/10/12 13:35:55;;;;;;;17.08;6.32;;;;;;;23.48;51.13;100168.31;5064829;28;20047;-56
2023/10/12 13:38:21;;;;;;;12.02;5.82;;;;;;;23.52;51.50;100172.13;5064750;28;20037;-58
2023/10/12 13:40:48;;;;;;;13.32;6.35;;;;;;;23.61;50.63;100159.75;5074600;28;20399;-56
2023/10/12 13:43:14;;;;;;;14.00;6.30;;;;;;;23.73;51.28;100159.53;5063792;28;20045;-56
2023/10/12 13:45:47;;;;;;;13.15;6.15;;;;;;;23.81;50.82;100150.91;5062101;28;20035;-59
2023/10/12 13:48:21;;;;;;;13.93;6.47;;;;;;;23.89;50.31;100147.66;5064406;28;20040;-58
2023/10/12 13:53:46;;;;;;;15.23;5.70;;;;;;;24.06;50.22;100134.72;5064112;28;20029;-58
2023/10/12 13:56:12;;;;;;;14.75;5.93;;;;;;;24.05;49.88;100135.78;5062039;28;20036;-58
2023/10/12 13:58:39;;;;;;;15.40;5.20;;;;;;;24.02;50.47;100135.50;5063555;28;20119;-55
2023/10/12 14:01:13;;;;;;;14.52;5.50;;;;;;;23.98;50.96;100143.34;5063495;28;20028;-57
2023/10/12 14:03:41;;;;;;;14.30;5.70;;;;;;;23.83;50.39;100143.28;5063021;28;20400;-55
2023/10/12 14:06:06;;;;;;;;;;;;;;;23.83;50.24;100141.38;5063533;28;20032;-58
2023/10/12 14:08:35;;;;;;;18.42;6.30;;;;;;;23.84;50.04;100139.47;5064724;28;19924;-55
2023/10/12 14:11:04;;;;;;;12.63;5.88;;;;;;;23.73;50.89;100140.50;5061843;28;20023;-58
2023/10/12 14:13:31;;;;;;;14.48;6.10;;;;;;;23.78;50.38;100132.38;5045818;28;20040;-54
2023/10/12 14:15:57;;;;;;;18.27;6.65;;;;;;;23.70;50.44;100124.72;5062366;28;20095;-57
2023/10/12 14:18:22;;;;;;;15.43;5.63;;;;;;;23.69;50.67;100121.19;5064345;28;20041;-55
2023/10/12 14:20:49;;;;;;;12.68;6.97;;;;;;;23.69;50.70;100126.63;5063371;28;20033;-54
2023/10/12 14:23:15;;;;;;;14.55;5.95;;;;;;;23.66;50.49;100129.84;5062421;28;20743;-60
2023/10/12 14:25:46;;;;;;;17.13;6.13;;;;;;;23.61;51.00;100124.41;5064133;28;20078;-57
2023/10/12 14:28:16;;;;;;;13.82;5.85;;;;;;;23.67;50.31;100127.94;5063903;28;20047;-54
2023/10/12 14:30:50;;;;;;;14.15;6.47;;;;;;;23.65;50.35;100124.69;5062464;28;20120;-58
2023/10/12 14:33:19;;;;;;;12.88;5.40;;;;;;;23.67;50.82;100130.66;5059311;28;20033;-58
2023/10/12 14:35:46;;;;;;;10.45;5.40;;;;;;;23.55;50.90;100125.41;5063564;28;20506;-58
2023/10/12 14:38:14;;;;;;;18.30;6.97;;;;;;;23.54;51.65;100145.53;5058689;28;20033;-57
2023/10/12 14:40:42;;;;;;;20.00;6.25;;;;;;;23.47;52.03;100139.47;5067494;28;20502;-58
2023/10/12 14:43:13;;;;;;;18.75;5.68;;;;;;;23.43;51.80;100133.75;5062049;28;20037;-57
2023/10/12 14:45:48;;;;;;;20.30;6.75;;;;;;;23.38;51.52;100138.31;5061260;28;20029;-56
2023/10/12 14:48:16;;;;;;;12.48;5.75;;;;;;;23.37;51.36;100134.78;5063770;28;20029;-57
2023/10/12 14:50:49;;;;;;;14.07;5.78;;;;;;;23.35;51.00;100123.38;5061864;28;20025;-58
2023/10/12 14:53:21;;;;;;;19.92;5.88;;;;;;;23.30;51.31;100123.31;5061634;28;20041;-55
2023/10/12 14:55:51;;;;;;;13.77;6.05;;;;;;;23.31;51.19;100116.00;5061422;28;20049;-58
2023/10/12 14:58:20;;;;;;;13.73;5.45;;;;;;;23.23;51.29;100114.56;5063624;28;20068;-56
2023/10/12 15:00:47;;;;;;;17.08;6.05;;;;;;;23.22;51.68;100121.09;5062311;28;20037;-57
2023/10/12 15:03:21;;;;;;;12.73;5.40;;;;;;;23.20;51.69;100124.03;5061981;28;20024;-55
2023/10/12 15:05:51;;;;;;;12.02;5.13;;;;;;;23.19;51.94;100119.69;5061489;28;20502;-55
2023/10/12 15:08:21;;;;;;;13.00;5.63;;;;;;;23.18;52.06;100130.81;5064035;28;20032;-58
2023/10/12 15:10:47;;;;;;;16.00;5.57;;;;;;;23.16;51.80;100127.56;5062021;28;20028;-57
2023/10/12 15:13:14;;;;;;;11.15;5.13;;;;;;;23.10;51.89;100129.41;5069757;28;20039;-58
2023/10/12 15:15:40;;;;;;;17.35;5.63;;;;;;;23.04;52.48;100121.47;5072392;28;20036;-55
2023/10/12 15:18:06;;;;;;;17.75;5.38;;;;;;;23.04;52.87;100121.47;5072653;28;20044;-55
2023/10/12 15:20:31;;;;;;;14.10;6.22;;;;;;;22.98;52.94;100123.31;5072513;28;20036;-59
2023/10/12 15:22:58;;;;;;;14.88;5.53;;;;;;;22.95;53.23;100116.53;5072427;28;20082;-54
2023/10/12 15:25:23;;;;;;;14.15;5.28;;;;;;;22.89;53.34;100112.13;5072372;28;20044;-58
2023/10/12 15:27:49;;;;;;;12.15;5.45;;;;;;;22.83;53.47;100109.59;5072546;28;20037;-58
2023/10/12 15:30:17;;;;;;;13.10;6.00;;;;;;;22.81;53.92;100117.97;5072514;28;20032;-56
2023/10/12 15:32:43;;;;;;;12.48;6.30;;;;;;;22.74;54.12;100118.16;5054464;28;20024;-56
2023/10/12 15:35:13;;;;;;;10.73;5.63;;;;;;;22.71;54.28;100126.03;5072135;28;20036;-56
2023/10/12 15:37:45;;;;;;;15.00;5.65;;;;;;;22.69;54.65;100133.59;5072381;28;20036;-56
2023/10/12 15:40:26;;;;;;;9.35;5.93;;;;;;;22.64;54.72;100128.13;5072366;28;20112;-57
2023/10/12 15:43:06;;;;;;;9.57;5.28;;;;;;;22.63;54.83;100131.91;5068082;28;20025;-55
2023/10/12 15:45:38;;;;;;;15.77;6.82;;;;;;;22.59;54.92;100130.78;5062219;28;20029;-56
2023/10/12 15:48:04;;;;;;;13.75;6.05;;;;;;;22.56;55.52;100128.56;5061680;28;20090;-56
2023/10/12 15:50:30;;;;;;;24.38;6.50;;;;;;;22.44;56.66;100128.72;5062840;28;20045;-55
2023/10/12 15:52:56;;;;;;;14.30;6.35;;;;;;;22.46;56.18;100134.72;5060827;28;20040;-56
2023/10/12 15:55:24;;;;;;;15.40;5.65;;;;;;;22.42;56.26;100134.38;5061718;28;20036;-54
2023/10/12 15:57:52;;;;;;;14.90;6.18;;;;;;;22.34;56.68;100132.13;5068413;28;20178;-57
2023/10/12 16:00:22;;;;;;;12.13;5.55;;;;;;;22.35;57.15;100128.31;5072120;28;20036;-56
2023/10/12 16:02:51;;;;;;;11.77;5.80;;;;;;;22.30;57.25;100135.59;5070259;28;20029;-56
2023/10/12 16:05:17;;;;;;;12.48;5.72;;;;;;;22.25;57.34;100133.66;5062835;28;20028;-57
2023/10/12 16:07:43;;;;;;;12.18;5.40;;;;;;;22.18;57.46;100130.31;5071765;28;20059;-57
2023/10/12 16:10:09;;;;;;;12.63;6.28;;;;;;;22.08;58.00;100124.72;5071913;28;20044;-59
2023/10/12 16:12:35;;;;;;;11.25;5.68;;;;;;;22.13;57.90;100138.38;5072512;28;20090;-60
2023/10/12 16:15:01;;;;;;;12.68;5.32;;;;;;;22.07;57.98;100128.50;5071049;28;20040;-59
2023/10/12 16:17:26;;;;;;;12.90;5.40;;;;;;;22.01;57.86;100137.63;5071308;28;20553;-58
2023/10/12 16:19:54;;;;;;;14.40;6.10;;;;;;;21.97;58.41;100131.06;5071628;28;20094;-54
2023/10/12 16:22:20;;;;;;;;;;;;;;;21.94;59.06;100127.78;5071920;28;20083;-56
2023/10/12 16:24:45;;;;;;;12.82;6.60;;;;;;;21.89;59.26;100130.44;5070998;28;19956;-57
2023/10/12 16:27:12;;;;;;;15.18;7.00;;;;;;;21.82;60.30;100143.34;5071455;28;20043;-56
2023/10/12 16:29:39;;;;;;;14.40;7.00;;;;;;;21.78;61.43;100144.94;5071547;28;20033;-54
2023/10/12 16:32:10;;;;;;;15.93;6.63;;;;;;;21.72;61.07;100145.94;5071370;28;20040;-58
2023/10/12 16:34:36;;;;;;;18.77;7.18;;;;;;;21.67;61.65;100133.13;5067825;28;20043;-57
2023/10/12 16:37:03;;;;;;;15.75;6.30;;;;;;;21.66;61.25;100134.19;5071345;28;20040;-57
2023/10/12 16:39:29;;;;;;;14.65;7.00;;;;;;;21.60;61.28;100135.19;5071543;28;20568;-57
2023/10/12 16:41:56;;;;;;;14.93;6.35;;;;;;;21.55;61.39;100142.41;5071559;28;20047;-58
2023/10/12 16:44:22;;;;;;;13.75;5.93;;;;;;;21.45;63.04;100148.47;5070806;28;20040;-55
2023/10/12 16:46:48;;;;;;;19.55;6.45;;;;;;;21.39;63.72;100146.78;5071391;28;20041;-57
2023/10/12 16:49:14;;;;;;;14.65;5.88;;;;;;;21.31;64.78;100155.28;5071181;28;20090;-57
2023/10/12 16:51:43;;;;;;;13.85;6.60;;;;;;;21.23;65.92;100152.97;5072086;28;20392;-58
2023/10/12 16:54:12;;;;;;;15.27;6.68;;;;;;;21.19;66.93;100157.22;5070695;28;20068;-58
2023/10/12 16:56:40;;;;;;;12.25;6.15;;;;;;;21.07;67.41;100151.91;5071393;28;20043;-55
2023/10/12 16:59:08;;;;;;;16.08;6.53;;;;;;;20.96;70.31;100144.66;5071204;28;20487;-55
2023/10/12 17:01:35;;;;;;;15.68;5.88;;;;;;;20.89;70.74;100146.69;5071299;28;20110;-56
2023/10/12 17:04:12;;;;;;;11.38;6.80;;;;;;;20.76;73.03;100164.06;5067274;28;20064;-57
2023/10/12 17:06:38;;;;;;;16.83;6.60;;;;;;;20.59;74.90;100170.22;5071311;28;20043;-55
2023/10/12 17:09:04;;;;;;;18.20;7.82;;;;;;;20.57;74.35;100171.53;5071182;28;20391;-57
2023/10/12 17:11:29;;;;;;;13.10;7.05;;;;;;;20.44;76.89;100177.19;5071095;28;20118;-58
2023/10/12 17:13:54;;;;;;;13.90;7.72;;;;;;;20.30;78.71;100165.81;5070424;28;20043;-55
2023/10/12 17:16:21;;;;;;;19.90;8.43;;;;;;;20.24;81.31;100162.19;5070915;28;20044;-57
2023/10/12 17:18:47;;;;;;;22.40;8.40;;;;;;;20.10;82.91;100171.63;5070972;28;20127;-56